Holts Summit, MO

6:19 PM CDT on August 24, 2016 (GMT -0500)
Jefferson City Memorial | | Change Station

Elev 548 ft 38.59 °N, 92.16 °W | Updated 26 minutes ago

Partly Cloudy
Partly Cloudy
90 °F
Feels Like 97 °F
N
9
Wind Variable Wind from SW

Today
High -- | Low -- °F
--% Chance of Precip.
Yesterday
High -- | Low -- °F
Precip. -- in
Pressure 29.94 in
Visibility 10.0 miles
Clouds Few 4500 ft
Heat Index 97 °F
Dew Point 72 °F
Humidity 55%
Rainfall 0.00 in
Snow Depth Not available.
6:31 AM 7:49 PM
Waning Gibbous, 52% visible
METAR KJEF 242253Z 22008KT 10SM FEW045 32/22 A2998 RMK AO2 SLP137 T03220222
Pressure 29.94 in
Visibility 10.0 miles
Clouds Few 4500 ft
Heat Index 97 °F
Dew Point 72 °F
Humidity 55%
Rainfall 0.00 in
Snow Depth Not available.
6:31 AM 7:49 PM
Waning Gibbous, 52% visible
METAR KJEF 242253Z 22008KT 10SM FEW045 32/22 A2998 RMK AO2 SLP137 T03220222

10-Day Weather Forecast

Almanac

Astronomy

Aug. 24, 2016 Rise Set
Actual Time
Civil Twilight
Nautical Twilight
Astronomical Twilight
Moon
Length of Visible Light
Length of Day
Tomorrow will be .
, % of the Moon is Illuminated

Today's Extremes

State Highs State Lows

Community

WunderPhotos

Upload Photos

1,934,731 photos uploaded!

WunderBlog® & News

Nearby

Air Quality

  Air Quality AQ Index Pollutant
Not available.

Snow Depth

Station Depth Elevation

Earthquake Activity

City Distance Mag. Time & Date
Minimum magnitude displayed is 2.5.

Coastal Water Temperatures

Place Temperature

Stations

Nearby Weather Stations

Station Location Temp. Windchill Dew Point Humidity Wind Precip. Elev Updated Type
                   

Watches & Warnings

There are currently no watches in effect.